createdAt,value
2019-04-27T00:01:16.197Z,28.98
2019-04-27T00:03:47.301Z,26.90
2019-04-27T00:06:17.497Z,25.02
2019-04-27T00:08:50.527Z,29.98
2019-04-27T00:11:20.732Z,32.67
2019-04-27T00:13:49.657Z,34.92
2019-04-27T00:16:36.192Z,38.10
2019-04-27T00:19:23.270Z,33.10
2019-04-27T00:21:53.685Z,31.20
2019-04-27T00:24:23.551Z,30.05
2019-04-27T00:26:53.950Z,32.90
2019-04-27T00:29:23.653Z,34.73
2019-04-27T00:31:53.426Z,34.98
2019-04-27T00:34:23.735Z,30.30
2019-04-27T00:37:10.245Z,34.75
2019-04-27T00:39:43.398Z,33.65
2019-04-27T00:42:13.508Z,34.65
2019-04-27T00:44:42.978Z,33.67
2019-04-27T00:47:11.791Z,36.83
2019-04-27T00:49:40.355Z,41.08
2019-04-27T00:52:08.951Z,24.47
2019-04-27T00:54:37.519Z,35.38
2019-04-27T00:57:13.646Z,32.17
2019-04-27T01:00:03.186Z,29.37
2019-04-27T01:02:36.622Z,27.58
2019-04-27T01:05:08.029Z,35.70
2019-04-27T01:07:36.528Z,30.97
2019-04-27T01:10:07.160Z,39.83
2019-04-27T01:12:35.704Z,35.17
2019-04-27T01:15:05.508Z,35.70
2019-04-27T01:17:34.121Z,35.03
2019-04-27T01:20:02.674Z,25.37
2019-04-27T01:22:31.221Z,35.10
2019-04-27T01:24:59.825Z,31.95
2019-04-27T01:27:30.033Z,32.73
2019-04-27T01:29:58.807Z,33.18
2019-04-27T01:32:29.168Z,31.07
2019-04-27T01:34:59.168Z,32.95
2019-04-27T01:37:28.534Z,46.55
2019-04-27T01:39:58.929Z,36.93
2019-04-27T01:42:29.382Z,30.52
2019-04-27T01:44:59.427Z,34.13
2019-04-27T01:47:28.949Z,34.00
2019-04-27T01:49:58.491Z,42.30
2019-04-27T01:52:27.170Z,34.43
2019-04-27T01:54:55.713Z,38.33
2019-04-27T01:57:25.467Z,35.75
2019-04-27T01:59:53.951Z,34.27
2019-04-27T02:02:26.682Z,35.70
2019-04-27T02:05:14.750Z,40.20
2019-04-27T02:07:44.830Z,28.67
2019-04-27T02:10:15.145Z,31.95
2019-04-27T02:12:44.267Z,39.00
2019-04-27T02:15:14.483Z,31.70
2019-04-27T02:17:42.989Z,33.00
2019-04-27T02:20:11.741Z,30.00
2019-04-27T02:22:40.340Z,33.42
2019-04-27T02:25:09.469Z,38.88
2019-04-27T02:27:39.689Z,36.08
2019-04-27T02:30:30.457Z,35.03
2019-04-27T02:33:15.765Z,38.98
2019-04-27T02:35:44.470Z,35.95
2019-04-27T02:38:13.012Z,39.25
2019-04-27T02:40:51.087Z,37.83
2019-04-27T02:43:23.039Z,28.50
2019-04-27T02:45:51.662Z,42.30
2019-04-27T02:48:20.277Z,35.83
2019-04-27T02:50:50.451Z,37.03
2019-04-27T02:53:20.674Z,42.70
2019-04-27T02:55:49.945Z,40.08
2019-04-27T02:58:21.411Z,44.65
2019-04-27T03:00:50.253Z,47.62
2019-04-27T03:03:20.340Z,35.40
2019-04-27T03:05:50.305Z,50.88
2019-04-27T03:08:19.996Z,38.35
2019-04-27T03:10:50.377Z,48.23
2019-04-27T03:13:26.527Z,43.02
2019-04-27T03:15:56.780Z,62.55
2019-04-27T03:18:42.002Z,38.60
2019-04-27T03:21:14.832Z,36.85
2019-04-27T03:23:43.391Z,37.42
2019-04-27T03:26:16.365Z,37.55
2019-04-27T03:28:44.966Z,45.92
2019-04-27T03:31:14.526Z,48.78
2019-04-27T03:33:43.506Z,40.85
2019-04-27T03:36:13.278Z,42.85
2019-04-27T03:38:42.341Z,33.58
2019-04-27T03:41:11.214Z,30.43
2019-04-27T03:43:41.351Z,30.55
2019-04-27T03:46:11.473Z,38.80
2019-04-27T03:48:40.914Z,43.83
2019-04-27T03:51:14.486Z,44.20
2019-04-27T03:56:30.548Z,45.92
2019-04-27T03:59:01.072Z,40.20
2019-04-27T04:01:30.198Z,43.52
2019-04-27T04:04:00.164Z,52.27
2019-04-27T04:06:29.681Z,44.23
2019-04-27T04:09:00.260Z,44.15
2019-04-27T04:11:49.122Z,32.30
2019-04-27T04:14:25.601Z,35.33
2019-04-27T04:17:01.729Z,33.45
2019-04-27T04:19:26.143Z,38.55
2019-04-27T04:21:54.720Z,39.73
2019-04-27T04:24:23.286Z,35.73
2019-04-27T04:26:51.890Z,40.58
2019-04-27T04:29:20.543Z,46.80
2019-04-27T04:31:50.279Z,34.27
2019-04-27T04:34:19.938Z,35.52
2019-04-27T04:36:50.432Z,31.65
2019-04-27T04:39:19.889Z,38.98
2019-04-27T04:41:51.094Z,40.43
2019-04-27T04:44:24.217Z,42.23
2019-04-27T04:46:54.423Z,36.63
2019-04-27T04:49:23.027Z,38.02
2019-04-27T04:51:51.638Z,38.05
2019-04-27T04:54:24.247Z,40.38
2019-04-27T04:56:50.445Z,37.42
2019-04-27T04:59:20.115Z,52.03
2019-04-27T05:01:49.926Z,41.92
2019-04-27T05:04:19.319Z,40.23
2019-04-27T05:06:49.249Z,37.50
2019-04-27T05:09:19.365Z,29.48
2019-04-27T05:11:48.676Z,42.27
2019-04-27T05:14:17.419Z,40.88
2019-04-27T05:16:45.954Z,52.75
2019-04-27T05:19:14.525Z,46.10
2019-04-27T05:21:43.128Z,34.55
2019-04-27T05:24:11.663Z,35.98
2019-04-27T05:26:40.230Z,38.53
2019-04-27T05:29:09.231Z,37.63
2019-04-27T05:31:38.822Z,36.10
2019-04-27T05:34:09.370Z,39.27
2019-04-27T05:36:41.661Z,40.45
2019-04-27T05:39:09.784Z,41.05
2019-04-27T05:41:41.240Z,39.45
2019-04-27T05:44:12.757Z,40.15
2019-04-27T05:46:58.932Z,36.48
2019-04-27T05:49:29.538Z,39.13
2019-04-27T05:51:59.464Z,45.55
2019-04-27T05:54:29.427Z,41.75
2019-04-27T05:56:59.208Z,41.85
2019-04-27T05:59:29.672Z,47.58
2019-04-27T06:01:59.279Z,29.63
2019-04-27T06:04:29.077Z,43.38
2019-04-27T06:06:58.815Z,40.48
2019-04-27T06:09:28.979Z,50.33
2019-04-27T06:11:59.104Z,47.35
2019-04-27T06:14:29.219Z,43.73
2019-04-27T06:16:59.623Z,48.40
2019-04-27T06:19:29.159Z,43.85
2019-04-27T06:22:00.979Z,48.68
2019-04-27T06:24:29.747Z,40.65
2019-04-27T06:26:59.730Z,60.33
2019-04-27T06:29:29.287Z,49.65
2019-04-27T06:31:59.363Z,45.00
2019-04-27T06:34:30.563Z,36.85
2019-04-27T06:36:59.954Z,32.38
2019-04-27T06:39:29.763Z,39.67
2019-04-27T06:42:01.107Z,40.40
2019-04-27T06:44:29.396Z,50.03
2019-04-27T06:46:59.183Z,47.03
2019-04-27T06:49:29.418Z,45.43
2019-04-27T06:51:58.660Z,41.48
2019-04-27T06:54:28.864Z,35.38
2019-04-27T06:56:59.258Z,33.28
2019-04-27T06:59:28.871Z,43.80
2019-04-27T07:02:00.842Z,46.40
2019-04-27T07:04:29.517Z,42.98
2019-04-27T07:07:01.333Z,36.60
2019-04-27T07:09:29.617Z,35.73
2019-04-27T07:11:59.268Z,39.30
2019-04-27T07:14:29.485Z,34.55
2019-04-27T07:16:59.221Z,46.88
2019-04-27T07:19:29.305Z,37.38
2019-04-27T07:21:59.097Z,42.25
2019-04-27T07:24:29.360Z,33.00
2019-04-27T07:26:59.629Z,45.28
2019-04-27T07:29:29.251Z,34.25
2019-04-27T07:31:59.504Z,39.90
2019-04-27T07:34:29.047Z,48.23
2019-04-27T07:36:59.735Z,39.23
2019-04-27T07:39:29.522Z,35.43
2019-04-27T07:41:58.677Z,40.08
2019-04-27T07:44:34.929Z,34.53
2019-04-27T07:47:23.136Z,29.82
2019-04-27T07:49:52.133Z,31.40
2019-04-27T07:52:21.467Z,34.38
2019-04-27T07:54:50.160Z,24.55
2019-04-27T07:57:19.760Z,36.63
2019-04-27T07:59:50.217Z,27.48
2019-04-27T08:02:19.286Z,25.95
2019-04-27T08:04:49.775Z,25.90
2019-04-27T08:07:19.711Z,28.38
2019-04-27T08:09:49.639Z,21.02
2019-04-27T08:12:20.664Z,34.25
2019-04-27T08:14:49.265Z,32.55
2019-04-27T08:17:19.096Z,31.95
2019-04-27T08:19:49.634Z,30.30
2019-04-27T08:22:19.337Z,29.12
2019-04-27T08:24:49.672Z,28.92
2019-04-27T08:27:22.715Z,34.08
2019-04-27T08:32:33.608Z,25.62
2019-04-27T08:37:29.968Z,33.60
2019-04-27T08:39:59.219Z,29.45
2019-04-27T08:42:29.386Z,27.48
2019-04-27T08:44:59.430Z,26.60
2019-04-27T08:47:29.361Z,26.90
2019-04-27T08:49:59.104Z,26.40
2019-04-27T08:52:29.007Z,29.85
2019-04-27T08:54:59.408Z,31.05
2019-04-27T08:57:29.008Z,27.82
2019-04-27T08:59:59.521Z,22.45
2019-04-27T09:02:39.732Z,23.47
2019-04-27T09:04:59.605Z,26.50
2019-04-27T09:07:44.965Z,29.55
2019-04-27T09:10:31.956Z,22.58
2019-04-27T09:13:16.932Z,24.12
2019-04-27T09:15:49.954Z,27.70
2019-04-27T09:20:52.412Z,24.67
2019-04-27T09:25:49.746Z,28.35
2019-04-27T09:28:20.082Z,28.15
2019-04-27T09:30:49.765Z,23.83
2019-04-27T09:33:18.593Z,30.75
2019-04-27T09:35:47.884Z,19.60
2019-04-27T09:38:16.720Z,28.05
2019-04-27T09:40:46.701Z,23.38
2019-04-27T09:43:15.782Z,24.82
2019-04-27T09:45:44.451Z,21.60
2019-04-27T09:48:12.981Z,17.52
2019-04-27T09:50:41.623Z,27.85
2019-04-27T09:53:10.170Z,25.23
2019-04-27T09:55:38.710Z,22.52
2019-04-27T09:58:07.330Z,23.22
2019-04-27T10:00:36.564Z,21.27
2019-04-27T10:03:06.568Z,19.60
2019-04-27T10:05:36.684Z,19.80
2019-04-27T10:08:06.200Z,28.35
2019-04-27T10:10:36.996Z,17.75
2019-04-27T10:13:06.832Z,24.77
2019-04-27T10:15:35.685Z,30.10
2019-04-27T10:18:06.059Z,24.60
2019-04-27T10:20:39.022Z,24.85
2019-04-27T10:23:06.264Z,24.63
2019-04-27T10:25:37.489Z,18.02
2019-04-27T10:28:06.858Z,24.30
2019-04-27T10:30:35.945Z,26.42
2019-04-27T10:33:07.753Z,27.62
2019-04-27T10:35:36.371Z,26.00
2019-04-27T10:38:05.147Z,16.42
2019-04-27T10:40:33.741Z,17.15
2019-04-27T10:43:02.380Z,28.98
2019-04-27T10:45:31.190Z,21.80
2019-04-27T10:47:59.817Z,23.85
2019-04-27T10:50:28.566Z,20.27
2019-04-27T10:52:59.336Z,21.87
2019-04-27T10:55:27.567Z,18.12
2019-04-27T10:57:56.278Z,20.70
2019-04-27T11:00:38.525Z,21.82
2019-04-27T11:03:07.716Z,19.57
2019-04-27T11:05:43.716Z,22.13
2019-04-27T11:08:12.787Z,22.73
2019-04-27T11:10:41.995Z,24.27
2019-04-27T11:13:10.757Z,21.62
2019-04-27T11:15:39.545Z,21.60
2019-04-27T11:18:08.318Z,24.63
2019-04-27T11:20:37.119Z,19.20
2019-04-27T11:23:09.197Z,14.45
2019-04-27T11:25:36.487Z,16.45
2019-04-27T11:28:05.810Z,24.15
2019-04-27T11:30:34.761Z,16.65
2019-04-27T11:33:03.753Z,21.77
2019-04-27T11:35:36.704Z,15.55
2019-04-27T11:38:05.725Z,17.05
2019-04-27T11:40:34.518Z,24.27
2019-04-27T11:43:03.192Z,20.60
2019-04-27T11:45:32.003Z,17.27
2019-04-27T11:48:00.649Z,17.07
2019-04-27T11:50:29.440Z,17.00
2019-04-27T11:52:58.188Z,18.12
2019-04-27T11:55:27.453Z,15.45
2019-04-27T11:57:56.480Z,19.92
2019-04-27T12:00:27.533Z,18.75
2019-04-27T12:02:56.827Z,18.45
2019-04-27T12:05:26.140Z,15.25
2019-04-27T12:07:56.052Z,21.17
2019-04-27T12:10:26.315Z,18.32
2019-04-27T12:12:56.247Z,21.62
2019-04-27T12:15:26.287Z,17.95
2019-04-27T12:17:56.173Z,17.02
2019-04-27T12:20:25.803Z,23.80
2019-04-27T12:22:55.232Z,14.50
2019-04-27T12:25:23.909Z,15.75
2019-04-27T12:27:57.119Z,13.48
2019-04-27T12:33:01.456Z,22.55
2019-04-27T12:35:30.069Z,15.88
2019-04-27T12:37:58.750Z,15.98
2019-04-27T12:40:27.637Z,17.35
2019-04-27T12:42:56.340Z,21.80
2019-04-27T12:45:26.699Z,16.77
2019-04-27T12:47:56.563Z,22.85
2019-04-27T12:50:26.190Z,16.45
2019-04-27T12:53:02.496Z,17.40
2019-04-27T12:55:41.786Z,19.60
2019-04-27T12:58:12.191Z,15.53
2019-04-27T13:00:51.457Z,23.05
2019-04-27T13:03:20.397Z,17.60
2019-04-27T13:05:49.356Z,17.05
2019-04-27T13:08:18.379Z,17.60
2019-04-27T13:10:47.160Z,16.45
2019-04-27T13:13:16.459Z,26.55
2019-04-27T13:15:45.957Z,16.93
2019-04-27T13:18:16.583Z,23.35
2019-04-27T13:20:45.222Z,18.35
2019-04-27T13:23:14.180Z,19.75
2019-04-27T13:25:43.969Z,27.25
2019-04-27T13:28:12.471Z,15.25
2019-04-27T13:30:41.083Z,18.87
2019-04-27T13:33:09.614Z,22.35
2019-04-27T13:35:38.213Z,26.70
2019-04-27T13:38:06.779Z,23.75
2019-04-27T13:40:37.022Z,22.52
2019-04-27T13:43:07.699Z,23.40
2019-04-27T13:45:43.884Z,20.80
2019-04-27T13:48:30.190Z,19.45
2019-04-27T13:51:16.656Z,27.45
2019-04-27T13:53:45.629Z,21.12
2019-04-27T13:56:17.665Z,15.85
2019-04-27T13:58:46.365Z,21.20
2019-04-27T14:01:15.473Z,19.70
2019-04-27T14:03:45.178Z,16.00
2019-04-27T14:06:14.190Z,21.42
2019-04-27T14:08:42.718Z,18.90
2019-04-27T14:11:11.318Z,19.20
2019-04-27T14:13:39.883Z,23.30
2019-04-27T14:16:08.792Z,22.58
2019-04-27T14:18:38.460Z,23.42
2019-04-27T14:21:09.181Z,20.05
2019-04-27T14:23:38.596Z,18.52
2019-04-27T14:26:08.753Z,26.48
2019-04-27T14:28:37.630Z,19.90
2019-04-27T14:31:06.199Z,22.10
2019-04-27T14:33:34.774Z,26.23
2019-04-27T14:36:03.377Z,18.52
2019-04-27T14:38:31.859Z,23.70
2019-04-27T14:41:00.435Z,21.35
2019-04-27T14:43:29.144Z,23.95
2019-04-27T14:45:58.292Z,27.13
2019-04-27T14:48:27.060Z,24.35
2019-04-27T14:50:55.681Z,25.62
2019-04-27T14:53:24.251Z,27.67
2019-04-27T14:55:52.836Z,25.45
2019-04-27T14:58:21.423Z,25.68
2019-04-27T15:00:50.135Z,24.47
2019-04-27T15:03:18.745Z,25.77
2019-04-27T15:05:49.646Z,24.95
2019-04-27T15:08:17.619Z,24.67
2019-04-27T15:10:46.786Z,24.95
2019-04-27T15:13:15.398Z,26.30
2019-04-27T15:15:43.896Z,34.90
2019-04-27T15:18:12.637Z,28.62
2019-04-27T15:20:44.545Z,28.57
2019-04-27T15:23:13.623Z,32.42
2019-04-27T15:25:46.494Z,33.85
2019-04-27T15:28:15.269Z,32.78
2019-04-27T15:31:03.583Z,27.05
2019-04-27T15:33:53.305Z,28.62
2019-04-27T15:36:28.329Z,37.73
2019-04-27T15:38:58.829Z,29.57
2019-04-27T15:41:31.679Z,34.78
2019-04-27T15:44:05.913Z,31.87
2019-04-27T15:46:33.765Z,33.13
2019-04-27T15:49:03.100Z,33.58
2019-04-27T15:51:32.308Z,30.57
2019-04-27T15:54:02.026Z,31.05
2019-04-27T15:56:35.174Z,31.68
2019-04-27T15:59:01.145Z,31.35
2019-04-27T16:01:35.700Z,36.23
2019-04-27T16:04:02.500Z,35.78
2019-04-27T16:06:30.489Z,34.55
2019-04-27T16:08:59.172Z,36.93
2019-04-27T16:11:27.771Z,34.75
2019-04-27T16:13:56.268Z,39.38
2019-04-27T16:16:29.169Z,49.42
2019-04-27T16:18:55.076Z,36.63
2019-04-27T16:21:23.648Z,43.73
2019-04-27T16:23:52.262Z,39.05
2019-04-27T16:26:20.899Z,42.15
2019-04-27T16:28:53.000Z,45.12
2019-04-27T16:31:20.468Z,46.77
2019-04-27T16:33:49.649Z,41.65
2019-04-27T16:36:19.789Z,43.83
2019-04-27T16:38:56.362Z,42.58
2019-04-27T16:41:24.970Z,47.93
2019-04-27T16:43:53.476Z,49.98
2019-04-27T16:46:22.339Z,45.43
2019-04-27T16:48:50.928Z,45.78
2019-04-27T16:51:19.521Z,45.28
2019-04-27T16:53:48.428Z,43.17
2019-04-27T16:56:20.495Z,48.13
2019-04-27T16:58:49.010Z,50.83
2019-04-27T17:01:22.119Z,48.38
2019-04-27T17:03:50.771Z,44.85
2019-04-27T17:06:21.331Z,48.23
2019-04-27T17:08:50.160Z,44.90
2019-04-27T17:11:19.619Z,54.63
2019-04-27T17:13:59.146Z,56.40
2019-04-27T17:16:48.867Z,53.87
2019-04-27T17:19:28.906Z,56.50
2019-04-27T17:21:58.136Z,57.35
2019-04-27T17:24:43.804Z,58.60
2019-04-27T17:27:11.129Z,56.18
2019-04-27T17:29:39.032Z,53.98
2019-04-27T17:32:09.139Z,57.20
2019-04-27T17:34:39.542Z,57.85
2019-04-27T17:37:08.305Z,56.58
2019-04-27T17:39:38.706Z,58.85
2019-04-27T17:42:08.485Z,56.55
2019-04-27T17:44:39.210Z,53.92
2019-04-27T17:47:08.852Z,58.90
2019-04-27T17:49:38.203Z,53.70
2019-04-27T17:52:08.627Z,50.85
2019-04-27T17:54:42.600Z,47.03
2019-04-27T17:57:10.006Z,56.02
2019-04-27T17:59:37.749Z,46.90
2019-04-27T18:02:06.578Z,52.67
2019-04-27T18:04:37.745Z,47.25
2019-04-27T18:07:05.525Z,46.75
2019-04-27T18:09:39.896Z,47.70
2019-04-27T18:12:08.058Z,46.02
2019-04-27T18:14:39.465Z,47.20
2019-04-27T18:17:10.280Z,44.80
2019-04-27T18:19:40.233Z,43.75
2019-04-27T18:22:10.108Z,51.45
2019-04-27T18:24:40.295Z,49.33
2019-04-27T18:27:25.600Z,48.02
2019-04-27T18:29:59.261Z,49.48
2019-04-27T18:32:27.645Z,45.23
2019-04-27T18:34:56.279Z,47.20
2019-04-27T18:37:25.132Z,45.20
2019-04-27T18:39:55.048Z,42.13
2019-04-27T18:42:28.031Z,45.95
2019-04-27T18:44:54.124Z,44.18
2019-04-27T18:47:22.792Z,43.05
2019-04-27T18:49:55.503Z,41.92
2019-04-27T18:52:40.727Z,41.83
2019-04-27T18:55:09.315Z,44.73
2019-04-27T18:57:38.915Z,40.38
2019-04-27T19:00:10.763Z,43.48
2019-04-27T19:02:39.409Z,40.12
2019-04-27T19:05:08.879Z,36.38
2019-04-27T19:07:38.210Z,37.00
2019-04-27T19:10:08.996Z,38.15
2019-04-27T19:12:39.432Z,39.92
2019-04-27T19:15:09.229Z,42.20
2019-04-27T19:17:38.651Z,42.45
2019-04-27T19:20:10.454Z,43.15
2019-04-27T19:22:38.742Z,44.18
2019-04-27T19:25:09.745Z,40.55
2019-04-27T19:27:42.515Z,38.75
2019-04-27T19:30:24.743Z,38.65
2019-04-27T19:32:53.282Z,41.83
2019-04-27T19:35:21.892Z,40.52
2019-04-27T19:37:50.403Z,37.78
2019-04-27T19:40:18.877Z,39.42
2019-04-27T19:42:48.656Z,36.73
2019-04-27T19:45:20.802Z,35.25
2019-04-27T19:47:48.627Z,44.85
2019-04-27T19:50:19.080Z,42.78
2019-04-27T19:52:50.184Z,36.17
2019-04-27T19:55:18.916Z,38.70
2019-04-27T19:57:49.625Z,38.30
2019-04-27T20:00:25.877Z,43.87
2019-04-27T20:02:54.452Z,46.08
2019-04-27T20:05:23.056Z,38.10
2019-04-27T20:07:51.706Z,40.98
2019-04-27T20:10:20.372Z,42.45
2019-04-27T20:12:50.852Z,40.92
2019-04-27T20:15:19.467Z,41.28
2019-04-27T20:17:47.992Z,40.60
2019-04-27T20:20:16.576Z,37.30
2019-04-27T20:22:45.433Z,41.08
2019-04-27T20:25:14.274Z,39.35
2019-04-27T20:27:48.411Z,38.20
2019-04-27T20:30:14.374Z,35.28
2019-04-27T20:32:42.936Z,36.68
2019-04-27T20:35:11.832Z,38.67
2019-04-27T20:37:41.571Z,35.28
2019-04-27T20:40:11.635Z,38.15
2019-04-27T20:42:41.532Z,37.90
2019-04-27T20:45:12.018Z,39.50
2019-04-27T20:47:40.704Z,38.17
2019-04-27T20:50:09.417Z,39.25
2019-04-27T20:52:42.332Z,37.67
2019-04-27T20:55:13.241Z,35.50
2019-04-27T20:57:41.790Z,38.53
2019-04-27T21:00:12.191Z,38.98
2019-04-27T21:02:42.413Z,37.83
2019-04-27T21:05:21.517Z,41.85
2019-04-27T21:07:52.865Z,34.83
2019-04-27T21:10:22.007Z,35.58
2019-04-27T21:12:51.840Z,43.33
2019-04-27T21:15:21.419Z,33.60
2019-04-27T21:17:51.234Z,36.17
2019-04-27T21:20:21.780Z,33.83
2019-04-27T21:22:51.533Z,35.70
2019-04-27T21:25:20.448Z,40.20
2019-04-27T21:27:49.028Z,38.75
2019-04-27T21:30:17.804Z,37.90
2019-04-27T21:32:46.434Z,35.50
2019-04-27T21:35:14.998Z,37.45
2019-04-27T21:37:43.500Z,36.63
2019-04-27T21:40:16.888Z,35.35
2019-04-27T21:42:45.733Z,36.70
2019-04-27T21:45:17.614Z,33.60
2019-04-27T21:47:47.114Z,32.42
2019-04-27T21:50:17.335Z,35.80
2019-04-27T21:52:47.530Z,37.15
2019-04-27T21:55:17.710Z,37.58
2019-04-27T21:57:46.266Z,37.88
2019-04-27T22:00:42.519Z,35.85
2019-04-27T22:03:11.823Z,38.53
2019-04-27T22:05:41.674Z,41.55
2019-04-27T22:08:11.741Z,40.70
2019-04-27T22:10:40.945Z,39.90
2019-04-27T22:13:09.445Z,44.73
2019-04-27T22:15:38.086Z,39.27
2019-04-27T22:18:06.952Z,36.42
2019-04-27T22:20:36.142Z,41.18
2019-04-27T22:23:15.619Z,39.90
2019-04-27T22:25:44.148Z,48.02
2019-04-27T22:28:12.687Z,45.03
2019-04-27T22:30:41.385Z,40.58
2019-04-27T22:33:11.273Z,37.50
2019-04-27T22:35:41.454Z,40.17
2019-04-27T22:38:11.834Z,39.80
2019-04-27T22:40:53.992Z,41.40
2019-04-27T22:43:41.290Z,38.73
2019-04-27T22:46:17.477Z,42.40
2019-04-27T22:48:46.040Z,47.45
2019-04-27T22:51:14.517Z,44.65
2019-04-27T22:53:42.987Z,42.33
2019-04-27T22:56:13.537Z,43.42
2019-04-27T22:58:58.418Z,44.60
2019-04-27T23:01:22.123Z,43.60
2019-04-27T23:03:55.050Z,43.73
2019-04-27T23:06:23.591Z,40.55
2019-04-27T23:08:52.099Z,39.13
2019-04-27T23:11:21.089Z,45.15
2019-04-27T23:13:50.626Z,41.33
2019-04-27T23:16:21.927Z,42.55
2019-04-27T23:18:51.546Z,46.05
2019-04-27T23:21:20.885Z,46.60
2019-04-27T23:23:51.612Z,49.05
2019-04-27T23:26:21.109Z,42.65
2019-04-27T23:28:51.379Z,47.73
2019-04-27T23:31:33.895Z,45.17
2019-04-27T23:34:02.685Z,46.55
2019-04-27T23:36:31.789Z,46.02
2019-04-27T23:39:00.872Z,47.93
2019-04-27T23:41:29.643Z,42.85
2019-04-27T23:43:58.194Z,49.13
2019-04-27T23:46:26.694Z,43.73
2019-04-27T23:48:55.184Z,43.90
2019-04-27T23:51:25.297Z,41.68
2019-04-27T23:53:53.978Z,44.35
2019-04-27T23:56:22.619Z,43.45
2019-04-27T23:58:51.412Z,40.33
